createdAt,value
2023-02-19T00:00:39.782Z,68.47
2023-02-19T00:02:42.760Z,67.83
2023-02-19T00:04:45.734Z,68.24
2023-02-19T00:06:49.588Z,68.06
2023-02-19T00:08:51.811Z,68.48
2023-02-19T00:10:54.354Z,68.51
2023-02-19T00:12:56.782Z,68.82
2023-02-19T00:14:59.033Z,68.42
2023-02-19T00:17:01.373Z,68.91
2023-02-19T00:19:06.456Z,68.78
2023-02-19T00:21:09.609Z,68.85
2023-02-19T00:23:12.332Z,68.74
2023-02-19T00:25:14.811Z,68.92
2023-02-19T00:27:17.554Z,68.76
2023-02-19T00:29:21.813Z,69.23
2023-02-19T00:31:33.350Z,69.55
2023-02-19T00:33:36.240Z,69.39
2023-02-19T00:35:39.127Z,69.48
2023-02-19T00:37:42.586Z,69.70
2023-02-19T00:39:45.150Z,70.28
2023-02-19T00:41:48.355Z,70.19
2023-02-19T00:44:02.090Z,69.98
2023-02-19T00:46:04.687Z,70.30
2023-02-19T00:48:07.131Z,69.98
2023-02-19T00:50:09.862Z,70.63
2023-02-19T00:52:12.696Z,70.44
2023-02-19T00:54:15.719Z,70.42
2023-02-19T00:56:18.624Z,70.28
2023-02-19T00:58:21.058Z,70.13
2023-02-19T01:00:23.870Z,70.61
2023-02-19T01:02:27.300Z,70.10
2023-02-19T01:04:29.783Z,69.83
2023-02-19T01:06:33.309Z,69.67
2023-02-19T01:08:36.259Z,70.43
2023-02-19T01:10:38.407Z,70.36
2023-02-19T01:12:40.796Z,70.20
2023-02-19T01:14:43.457Z,70.22
2023-02-19T01:16:45.696Z,70.45
2023-02-19T01:18:49.205Z,70.87
2023-02-19T01:20:53.716Z,70.49
2023-02-19T01:22:56.017Z,70.86
2023-02-19T01:24:58.390Z,70.41
2023-02-19T01:27:00.804Z,70.52
2023-02-19T01:29:04.225Z,70.39
2023-02-19T01:31:09.898Z,70.49
2023-02-19T01:33:12.740Z,70.46
2023-02-19T01:35:15.564Z,70.95
2023-02-19T01:37:18.266Z,70.77
2023-02-19T01:39:20.735Z,70.30
2023-02-19T01:41:25.771Z,70.81
2023-02-19T01:43:29.314Z,70.84
2023-02-19T01:45:38.551Z,70.53
2023-02-19T01:47:40.832Z,70.57
2023-02-19T01:49:51.473Z,70.26
2023-02-19T01:52:02.256Z,70.85
2023-02-19T01:54:07.536Z,70.35
2023-02-19T01:56:10.642Z,70.53
2023-02-19T01:58:16.097Z,70.51
2023-02-19T02:00:18.974Z,70.61
2023-02-19T02:02:24.441Z,70.51
2023-02-19T02:04:30.347Z,70.14
2023-02-19T02:06:43.137Z,70.27
2023-02-19T02:09:04.846Z,69.50
2023-02-19T02:11:07.324Z,69.61
2023-02-19T02:13:09.651Z,70.00
2023-02-19T02:15:12.857Z,70.06
2023-02-19T02:17:27.038Z,69.89
2023-02-19T02:20:10.797Z,70.64
2023-02-19T02:22:21.119Z,69.95
2023-02-19T02:25:13.780Z,70.03
2023-02-19T02:27:40.489Z,70.16
2023-02-19T02:30:07.355Z,70.35
2023-02-19T02:32:16.223Z,70.31
2023-02-19T02:34:27.938Z,70.18
2023-02-19T02:36:38.218Z,69.78
2023-02-19T02:38:44.983Z,70.19
2023-02-19T02:40:48.966Z,70.19
2023-02-19T02:42:52.119Z,70.14
2023-02-19T02:45:17.776Z,70.18
2023-02-19T02:47:38.963Z,70.18
2023-02-19T02:50:01.282Z,69.79
2023-02-19T02:52:24.617Z,69.79
2023-02-19T02:54:51.141Z,69.79
2023-02-19T02:56:58.290Z,69.81
2023-02-19T02:59:08.491Z,69.71
2023-02-19T03:01:39.059Z,69.80
2023-02-19T03:03:44.989Z,69.38
2023-02-19T03:05:53.159Z,69.51
2023-02-19T03:08:05.053Z,69.29
2023-02-19T03:10:12.686Z,69.17
2023-02-19T03:12:36.610Z,69.52
2023-02-19T03:15:05.685Z,69.78
2023-02-19T03:17:39.439Z,69.83
2023-02-19T03:19:46.345Z,69.79
2023-02-19T03:22:02.512Z,70.18
2023-02-19T03:24:27.725Z,70.17
2023-02-19T03:26:33.723Z,70.35
2023-02-19T03:29:10.548Z,69.66
2023-02-19T03:31:20.127Z,70.30
2023-02-19T03:33:27.103Z,70.37
2023-02-19T03:35:34.372Z,70.37
2023-02-19T03:37:42.524Z,69.84
2023-02-19T03:39:45.855Z,69.98
2023-02-19T03:42:16.927Z,70.00
2023-02-19T03:44:35.145Z,70.16
2023-02-19T03:46:49.222Z,70.05
2023-02-19T03:48:54.234Z,70.58
2023-02-19T03:51:25.996Z,70.04
2023-02-19T03:53:40.954Z,70.27
2023-02-19T03:55:52.425Z,69.93
2023-02-19T03:58:20.198Z,69.91
2023-02-19T04:00:55.129Z,70.39
2023-02-19T04:03:01.393Z,70.74
2023-02-19T04:05:15.071Z,70.53
2023-02-19T04:07:18.078Z,71.31
2023-02-19T04:09:23.963Z,71.49
2023-02-19T04:11:34.888Z,71.17
2023-02-19T04:13:58.719Z,71.42
2023-02-19T04:16:09.582Z,71.78
2023-02-19T04:18:16.911Z,71.31
2023-02-19T04:20:21.763Z,71.87
2023-02-19T04:22:25.626Z,72.04
2023-02-19T04:24:41.920Z,72.55
2023-02-19T04:26:45.137Z,71.95
2023-02-19T04:28:47.612Z,71.97
2023-02-19T04:30:50.441Z,72.28
2023-02-19T04:32:52.852Z,72.22
2023-02-19T04:34:55.498Z,72.31
2023-02-19T04:36:58.045Z,72.51
2023-02-19T04:39:00.431Z,72.03
2023-02-19T04:41:02.868Z,71.89
2023-02-19T04:43:05.494Z,71.12
2023-02-19T04:45:08.964Z,71.87
2023-02-19T04:47:11.393Z,71.96
2023-02-19T04:49:13.731Z,71.64
2023-02-19T04:51:16.171Z,71.95
2023-02-19T04:53:18.441Z,72.00
2023-02-19T04:55:20.858Z,72.17
2023-02-19T04:57:23.222Z,71.80
2023-02-19T04:59:25.570Z,71.33
2023-02-19T05:01:28.055Z,71.34
2023-02-19T05:03:30.780Z,71.54
2023-02-19T05:05:33.426Z,70.83
2023-02-19T05:07:35.755Z,70.89
2023-02-19T05:09:38.195Z,70.96
2023-02-19T05:11:40.482Z,71.13
2023-02-19T05:13:42.672Z,70.85
2023-02-19T05:15:55.531Z,71.02
2023-02-19T05:17:57.918Z,71.09
2023-02-19T05:20:01.033Z,70.95
2023-02-19T05:22:03.561Z,71.16
2023-02-19T05:24:06.434Z,70.64
2023-02-19T05:26:21.995Z,70.85
2023-02-19T05:28:34.264Z,71.11
2023-02-19T05:30:36.682Z,70.91
2023-02-19T05:32:39.276Z,71.12
2023-02-19T05:34:41.711Z,70.86
2023-02-19T05:36:44.585Z,70.93
2023-02-19T05:38:48.135Z,70.91
2023-02-19T05:40:51.126Z,70.33
2023-02-19T05:42:53.744Z,71.02
2023-02-19T05:44:56.807Z,71.00
2023-02-19T05:46:58.980Z,71.20
2023-02-19T05:49:01.928Z,71.05
2023-02-19T05:51:07.072Z,70.73
2023-02-19T05:53:10.100Z,70.91
2023-02-19T05:55:13.169Z,71.60
2023-02-19T05:57:15.970Z,71.29
2023-02-19T05:59:21.250Z,71.24
2023-02-19T06:01:26.600Z,71.50
2023-02-19T06:03:29.234Z,71.39
2023-02-19T06:05:31.758Z,71.35
2023-02-19T06:07:34.888Z,71.01
2023-02-19T06:09:37.206Z,71.13
2023-02-19T06:11:40.017Z,71.86
2023-02-19T06:13:42.523Z,71.61
2023-02-19T06:15:44.854Z,71.28
2023-02-19T06:17:48.804Z,72.06
2023-02-19T06:19:51.486Z,71.41
2023-02-19T06:21:53.783Z,71.73
2023-02-19T06:23:56.146Z,71.25
2023-02-19T06:26:20.066Z,71.04
2023-02-19T06:28:23.149Z,70.98
2023-02-19T06:30:26.354Z,71.24
2023-02-19T06:32:28.790Z,70.55
2023-02-19T06:34:31.199Z,71.00
2023-02-19T06:36:34.172Z,71.05
2023-02-19T06:38:36.381Z,70.77
2023-02-19T06:40:39.483Z,70.73
2023-02-19T06:42:41.652Z,70.82
2023-02-19T06:44:43.999Z,71.17
2023-02-19T06:46:46.281Z,70.79
2023-02-19T06:48:48.752Z,71.43
2023-02-19T06:50:51.341Z,70.51
2023-02-19T06:52:53.794Z,71.01
2023-02-19T06:54:55.984Z,70.93
2023-02-19T06:56:59.489Z,70.91
2023-02-19T06:59:04.816Z,70.88
2023-02-19T07:01:07.507Z,70.90
2023-02-19T07:03:09.959Z,70.88
2023-02-19T07:05:12.942Z,71.20
2023-02-19T07:07:15.330Z,71.08
2023-02-19T07:09:17.651Z,71.02
2023-02-19T07:11:20.150Z,71.28
2023-02-19T07:13:24.210Z,70.77
2023-02-19T07:15:26.628Z,70.49
2023-02-19T07:17:29.094Z,70.32
2023-02-19T07:19:31.847Z,70.64
2023-02-19T07:21:38.034Z,70.63
2023-02-19T07:23:40.937Z,70.51
2023-02-19T07:25:43.486Z,70.60
2023-02-19T07:27:46.044Z,70.82
2023-02-19T07:29:48.591Z,70.27
2023-02-19T07:31:51.243Z,71.21
2023-02-19T07:33:53.520Z,70.36
2023-02-19T07:35:55.957Z,70.51
2023-02-19T07:37:58.260Z,71.42
2023-02-19T07:40:00.689Z,70.86
2023-02-19T07:42:02.863Z,70.71
2023-02-19T07:44:07.872Z,70.83
2023-02-19T07:46:13.896Z,70.97
2023-02-19T07:48:17.296Z,70.53
2023-02-19T07:50:19.570Z,69.96
2023-02-19T07:52:22.397Z,70.52
2023-02-19T07:54:25.024Z,70.83
2023-02-19T07:56:29.579Z,70.58
2023-02-19T07:58:33.011Z,70.19
2023-02-19T08:00:35.405Z,70.24
2023-02-19T08:02:56.825Z,70.02
2023-02-19T08:04:59.740Z,69.71
2023-02-19T08:07:02.376Z,69.83
2023-02-19T08:09:06.322Z,69.59
2023-02-19T08:11:29.464Z,70.25
2023-02-19T08:13:32.014Z,70.32
2023-02-19T08:15:34.463Z,69.72
2023-02-19T08:17:37.322Z,70.29
2023-02-19T08:19:40.092Z,70.26
2023-02-19T08:21:42.833Z,70.41
2023-02-19T08:23:46.574Z,70.30
2023-02-19T08:25:51.000Z,70.16
2023-02-19T08:27:53.222Z,70.35
2023-02-19T08:29:56.274Z,70.64
2023-02-19T08:31:58.646Z,70.39
2023-02-19T08:34:01.403Z,69.78
2023-02-19T08:36:08.769Z,70.43
2023-02-19T08:38:12.563Z,69.89
2023-02-19T08:40:15.500Z,69.82
2023-02-19T08:42:18.217Z,70.29
2023-02-19T08:44:21.691Z,70.67
2023-02-19T08:46:24.201Z,70.80
2023-02-19T08:48:26.779Z,70.66
2023-02-19T08:50:29.035Z,70.51
2023-02-19T08:52:32.750Z,71.32
2023-02-19T08:54:37.213Z,71.13
2023-02-19T08:56:40.291Z,70.48
2023-02-19T08:58:44.102Z,70.76
2023-02-19T09:00:46.849Z,70.81
2023-02-19T09:02:50.327Z,70.83
2023-02-19T09:04:52.978Z,70.96
2023-02-19T09:06:55.499Z,70.32
2023-02-19T09:08:58.617Z,70.65
2023-02-19T09:11:02.738Z,70.19
2023-02-19T09:13:05.195Z,69.88
2023-02-19T09:15:08.485Z,70.47
2023-02-19T09:17:11.420Z,70.38
2023-02-19T09:19:14.105Z,69.95
2023-02-19T09:21:16.648Z,70.51
2023-02-19T09:23:19.349Z,69.69
2023-02-19T09:25:21.909Z,70.60
2023-02-19T09:27:24.335Z,70.16
2023-02-19T09:29:28.425Z,70.35
2023-02-19T09:31:31.024Z,70.00
2023-02-19T09:33:34.194Z,69.84
2023-02-19T09:35:40.170Z,69.77
2023-02-19T09:37:42.889Z,69.87
2023-02-19T09:39:45.372Z,70.20
2023-02-19T09:42:14.179Z,69.98
2023-02-19T09:44:28.454Z,69.65
2023-02-19T09:46:48.281Z,68.67
2023-02-19T09:48:53.027Z,68.21
2023-02-19T09:50:57.132Z,67.51
2023-02-19T09:53:05.251Z,68.61
2023-02-19T09:55:18.315Z,68.69
2023-02-19T09:57:22.141Z,69.59
2023-02-19T09:59:28.650Z,70.06
2023-02-19T10:01:37.700Z,69.68
2023-02-19T10:03:44.098Z,69.54
2023-02-19T10:05:46.675Z,69.97
2023-02-19T10:07:53.085Z,69.56
2023-02-19T10:10:03.117Z,69.90
2023-02-19T10:12:17.314Z,70.07
2023-02-19T10:14:28.817Z,68.64
2023-02-19T10:16:31.700Z,68.64
2023-02-19T10:18:41.414Z,68.46
2023-02-19T10:20:44.091Z,68.74
2023-02-19T10:22:47.129Z,68.58
2023-02-19T10:24:56.135Z,68.84
2023-02-19T10:26:58.823Z,69.34
2023-02-19T10:29:02.667Z,68.66
2023-02-19T10:31:16.355Z,68.37
2023-02-19T10:33:20.170Z,68.11
2023-02-19T10:35:22.420Z,66.91
2023-02-19T10:37:25.481Z,67.43
2023-02-19T10:39:43.956Z,67.13
2023-02-19T10:41:46.251Z,67.12
2023-02-19T10:44:01.217Z,66.78
2023-02-19T10:46:18.236Z,67.69
2023-02-19T10:48:28.583Z,68.23
2023-02-19T10:50:47.339Z,67.91
2023-02-19T10:52:54.836Z,67.69
2023-02-19T10:55:14.423Z,65.66
2023-02-19T10:57:19.856Z,65.34
2023-02-19T10:59:27.361Z,66.25
2023-02-19T11:01:30.336Z,65.56
2023-02-19T11:03:32.756Z,65.19
2023-02-19T11:05:38.700Z,65.64
2023-02-19T11:07:55.217Z,64.93
2023-02-19T11:09:59.262Z,65.53
2023-02-19T11:12:05.854Z,65.90
2023-02-19T11:14:20.141Z,66.15
2023-02-19T11:16:24.144Z,65.50
2023-02-19T11:18:32.287Z,65.14
2023-02-19T11:20:34.871Z,65.34
2023-02-19T11:22:47.322Z,66.03
2023-02-19T11:24:57.293Z,65.66
2023-02-19T11:27:04.437Z,66.04
2023-02-19T11:29:26.375Z,65.84
2023-02-19T11:31:36.490Z,66.64
2023-02-19T11:34:04.591Z,66.18
2023-02-19T11:36:16.634Z,66.51
2023-02-19T11:38:21.312Z,65.77
2023-02-19T11:40:38.143Z,66.88
2023-02-19T11:42:59.371Z,66.23
2023-02-19T11:45:35.778Z,66.26
2023-02-19T11:48:09.047Z,66.20
2023-02-19T11:50:26.399Z,66.29
2023-02-19T11:53:00.195Z,66.34
2023-02-19T11:55:05.397Z,65.73
2023-02-19T11:57:43.242Z,65.57
2023-02-19T12:00:01.185Z,66.08
2023-02-19T12:02:39.340Z,66.41
2023-02-19T12:05:19.365Z,65.78
2023-02-19T12:07:51.714Z,65.65
2023-02-19T12:10:06.475Z,65.51
2023-02-19T12:12:31.203Z,66.07
2023-02-19T12:14:58.939Z,65.65
2023-02-19T12:17:28.870Z,65.97
2023-02-19T12:19:55.392Z,66.16
2023-02-19T12:22:25.821Z,65.36
2023-02-19T12:24:40.529Z,65.89
2023-02-19T12:27:01.311Z,65.39
2023-02-19T12:29:24.902Z,65.21
2023-02-19T12:31:39.931Z,63.82
2023-02-19T12:33:57.716Z,62.96
2023-02-19T12:36:22.887Z,62.61
2023-02-19T12:38:37.310Z,62.69
2023-02-19T12:41:13.572Z,62.70
2023-02-19T12:43:24.025Z,63.05
2023-02-19T12:45:58.228Z,62.17
2023-02-19T12:48:17.460Z,62.88
2023-02-19T12:50:26.194Z,62.24
2023-02-19T12:52:37.188Z,62.41
2023-02-19T12:54:44.029Z,62.29
2023-02-19T12:56:53.134Z,62.88
2023-02-19T12:59:05.234Z,62.43
2023-02-19T13:01:10.726Z,62.15
2023-02-19T13:03:41.583Z,62.30
2023-02-19T13:05:53.028Z,62.14
2023-02-19T13:08:04.379Z,62.25
2023-02-19T13:10:30.577Z,62.77
2023-02-19T13:12:41.555Z,62.57
2023-02-19T13:15:00.694Z,62.22
2023-02-19T13:17:29.928Z,62.25
2023-02-19T13:19:33.850Z,62.39
2023-02-19T13:21:56.810Z,62.68
2023-02-19T13:24:03.387Z,63.49
2023-02-19T13:26:44.917Z,63.16
2023-02-19T13:29:23.271Z,63.33
2023-02-19T13:31:58.064Z,63.34
2023-02-19T13:34:21.138Z,62.82
2023-02-19T13:36:28.836Z,63.36
2023-02-19T13:38:32.137Z,63.17
2023-02-19T13:40:39.752Z,63.15
2023-02-19T13:42:42.335Z,62.48
2023-02-19T13:44:48.982Z,61.76
2023-02-19T13:46:51.823Z,61.43
2023-02-19T13:49:25.207Z,62.31
2023-02-19T13:51:28.124Z,62.25
2023-02-19T13:53:45.097Z,60.77
2023-02-19T13:55:52.747Z,60.23
2023-02-19T13:58:15.685Z,60.43
2023-02-19T14:00:56.742Z,59.57
2023-02-19T14:03:31.524Z,60.31
2023-02-19T14:05:59.894Z,60.37
2023-02-19T14:08:02.643Z,60.71
2023-02-19T14:10:13.073Z,60.33
2023-02-19T14:12:18.484Z,60.68
2023-02-19T14:14:54.864Z,59.39
2023-02-19T14:17:04.010Z,59.85
2023-02-19T14:19:36.881Z,59.50
2023-02-19T14:21:41.062Z,60.36
2023-02-19T14:23:44.501Z,59.13
2023-02-19T14:25:52.982Z,59.02
2023-02-19T14:28:03.949Z,59.67
2023-02-19T14:30:06.758Z,58.85
2023-02-19T14:32:18.590Z,59.96
2023-02-19T14:34:25.405Z,59.45
2023-02-19T14:36:40.783Z,59.53
2023-02-19T14:39:10.867Z,58.17
2023-02-19T14:41:16.377Z,59.12
2023-02-19T14:43:21.693Z,59.28
2023-02-19T14:45:25.253Z,59.74
2023-02-19T14:47:32.550Z,59.25
2023-02-19T14:50:16.626Z,59.27
2023-02-19T14:52:32.405Z,59.22
2023-02-19T14:54:38.133Z,60.30
2023-02-19T14:56:44.283Z,60.04
2023-02-19T14:58:47.052Z,60.24
2023-02-19T15:00:49.693Z,61.22
2023-02-19T15:02:58.920Z,60.73
2023-02-19T15:05:01.545Z,61.08
2023-02-19T15:07:08.940Z,60.79
2023-02-19T15:09:14.195Z,61.13
2023-02-19T15:11:22.017Z,60.95
2023-02-19T15:13:29.968Z,60.40
2023-02-19T15:15:45.701Z,61.34
2023-02-19T15:17:49.239Z,61.48
2023-02-19T15:19:52.411Z,61.76
2023-02-19T15:21:55.933Z,61.53
2023-02-19T15:24:04.386Z,61.65
2023-02-19T15:26:21.350Z,61.77
2023-02-19T15:28:29.999Z,62.11
2023-02-19T15:30:32.621Z,61.61
2023-02-19T15:32:35.140Z,62.59
2023-02-19T15:34:37.390Z,62.93
2023-02-19T15:36:40.342Z,62.84
2023-02-19T15:38:42.744Z,63.49
2023-02-19T15:40:47.405Z,63.03
2023-02-19T15:42:49.859Z,62.92
2023-02-19T15:45:04.656Z,63.28
2023-02-19T15:47:41.987Z,62.58
2023-02-19T15:49:52.904Z,63.07
2023-02-19T15:52:05.232Z,62.57
2023-02-19T15:54:51.164Z,62.47
2023-02-19T15:56:55.656Z,62.73
2023-02-19T15:58:57.954Z,62.58
2023-02-19T16:01:28.083Z,61.71
2023-02-19T16:03:32.704Z,62.15
2023-02-19T16:05:40.387Z,62.26
2023-02-19T16:07:44.055Z,61.33
2023-02-19T16:09:46.444Z,61.68
2023-02-19T16:11:52.634Z,61.73
2023-02-19T16:14:21.351Z,61.42
2023-02-19T16:16:30.258Z,62.38
2023-02-19T16:18:33.795Z,62.50
2023-02-19T16:20:36.804Z,61.91
2023-02-19T16:22:43.464Z,62.50
2023-02-19T16:24:49.771Z,61.82
2023-02-19T16:26:52.656Z,61.71
2023-02-19T16:28:55.875Z,61.89
2023-02-19T16:31:09.821Z,62.75
2023-02-19T16:33:22.012Z,62.47
2023-02-19T16:35:40.483Z,62.63
2023-02-19T16:37:58.168Z,62.63
2023-02-19T16:40:11.607Z,62.83
2023-02-19T16:42:15.503Z,62.84
2023-02-19T16:44:21.105Z,61.96
2023-02-19T16:46:24.243Z,62.00
2023-02-19T16:48:27.442Z,62.41
2023-02-19T16:50:29.931Z,62.81
2023-02-19T16:52:32.531Z,62.22
2023-02-19T16:54:35.277Z,62.74
2023-02-19T16:56:38.273Z,62.01
2023-02-19T16:58:40.923Z,61.74
2023-02-19T17:00:43.711Z,61.60
2023-02-19T17:02:48.809Z,62.24
2023-02-19T17:04:55.638Z,62.43
2023-02-19T17:06:58.712Z,61.71
2023-02-19T17:09:01.563Z,61.76
2023-02-19T17:11:07.810Z,61.09
2023-02-19T17:13:10.735Z,61.31
2023-02-19T17:15:13.434Z,60.71
2023-02-19T17:17:15.780Z,61.29
2023-02-19T17:19:20.105Z,60.79
2023-02-19T17:21:25.873Z,60.31
2023-02-19T17:23:28.257Z,60.54
2023-02-19T17:25:31.163Z,60.86
2023-02-19T17:27:33.594Z,60.53
2023-02-19T17:29:37.412Z,61.42
2023-02-19T17:31:40.379Z,61.41
2023-02-19T17:33:43.613Z,61.09
2023-02-19T17:35:46.192Z,60.33
2023-02-19T17:37:48.935Z,61.43
2023-02-19T17:39:51.976Z,61.47
2023-02-19T17:41:54.939Z,61.40
2023-02-19T17:43:57.519Z,61.19
2023-02-19T17:46:00.491Z,61.53
2023-02-19T17:48:03.162Z,60.52
2023-02-19T17:50:07.162Z,61.74
2023-02-19T17:52:10.890Z,61.73
2023-02-19T17:54:13.529Z,61.52
2023-02-19T17:56:20.289Z,62.03
2023-02-19T17:58:23.210Z,62.61
2023-02-19T18:00:28.323Z,62.21
2023-02-19T18:02:31.343Z,62.19
2023-02-19T18:04:36.465Z,61.84
2023-02-19T18:06:39.834Z,62.82
2023-02-19T18:08:52.829Z,62.74
2023-02-19T18:10:56.036Z,62.51
2023-02-19T18:12:58.941Z,63.04
2023-02-19T18:15:01.972Z,63.52
2023-02-19T18:17:04.725Z,63.94
2023-02-19T18:19:08.060Z,63.25
2023-02-19T18:21:12.658Z,63.40
2023-02-19T18:23:15.661Z,63.93
2023-02-19T18:25:20.141Z,63.57
2023-02-19T18:27:24.362Z,63.88
2023-02-19T18:29:29.431Z,63.30
2023-02-19T18:31:34.229Z,63.82
2023-02-19T18:33:36.923Z,63.60
2023-02-19T18:35:40.352Z,63.51
2023-02-19T18:37:44.783Z,64.34
2023-02-19T18:39:47.488Z,63.88
2023-02-19T18:41:51.418Z,64.45
2023-02-19T18:43:53.933Z,64.40
2023-02-19T18:45:56.704Z,64.23
2023-02-19T18:47:59.329Z,64.41
2023-02-19T18:50:02.096Z,64.79
2023-02-19T18:52:05.066Z,64.85
2023-02-19T18:54:08.326Z,64.75
2023-02-19T18:56:11.161Z,65.32
2023-02-19T18:58:13.968Z,64.34
2023-02-19T19:00:24.056Z,64.82
2023-02-19T19:02:29.759Z,65.03
2023-02-19T19:04:34.967Z,65.44
2023-02-19T19:06:38.191Z,64.86
2023-02-19T19:08:41.260Z,64.91
2023-02-19T19:10:44.082Z,65.35
2023-02-19T19:12:46.831Z,65.88
2023-02-19T19:14:49.413Z,64.98
2023-02-19T19:16:52.509Z,65.29
2023-02-19T19:18:56.250Z,64.97
2023-02-19T19:21:03.655Z,64.07
2023-02-19T19:23:06.982Z,64.69
2023-02-19T19:25:09.693Z,64.42
2023-02-19T19:27:12.498Z,64.16
2023-02-19T19:29:16.550Z,64.45
2023-02-19T19:31:22.071Z,64.96
2023-02-19T19:33:27.780Z,64.46
2023-02-19T19:35:30.795Z,64.57
2023-02-19T19:37:33.583Z,64.21
2023-02-19T19:39:36.169Z,63.97
2023-02-19T19:41:38.971Z,63.88
2023-02-19T19:43:41.666Z,64.99
2023-02-19T19:45:44.971Z,64.69
2023-02-19T19:47:49.410Z,63.32
2023-02-19T19:49:52.610Z,63.55
2023-02-19T19:51:58.570Z,64.32
2023-02-19T19:54:03.541Z,63.45
2023-02-19T19:56:06.728Z,64.50
2023-02-19T19:58:09.442Z,63.82
2023-02-19T20:00:16.604Z,64.16
2023-02-19T20:02:20.490Z,63.45
2023-02-19T20:04:24.449Z,64.49
2023-02-19T20:06:32.638Z,64.38
2023-02-19T20:08:35.170Z,63.78
2023-02-19T20:10:37.905Z,63.92
2023-02-19T20:12:41.280Z,64.58
2023-02-19T20:14:46.489Z,63.51
2023-02-19T20:16:50.018Z,64.37
2023-02-19T20:18:52.768Z,63.91
2023-02-19T20:20:55.752Z,64.46
2023-02-19T20:22:58.663Z,64.86
2023-02-19T20:25:01.302Z,64.49
2023-02-19T20:27:04.759Z,64.68
2023-02-19T20:29:09.116Z,64.50
2023-02-19T20:31:12.371Z,64.70
2023-02-19T20:33:15.459Z,63.96
2023-02-19T20:35:18.544Z,64.08
2023-02-19T20:37:21.575Z,63.80
2023-02-19T20:39:29.169Z,64.30
2023-02-19T20:41:31.736Z,64.04
2023-02-19T20:43:34.297Z,63.84
2023-02-19T20:45:36.853Z,64.32
2023-02-19T20:47:40.562Z,64.45
2023-02-19T20:49:47.086Z,64.84
2023-02-19T20:51:54.079Z,64.85
2023-02-19T20:53:57.027Z,64.91
2023-02-19T20:56:00.432Z,64.61
2023-02-19T20:58:03.016Z,65.21
2023-02-19T21:00:07.341Z,65.48
2023-02-19T21:02:17.274Z,65.18
2023-02-19T21:04:20.436Z,65.52
2023-02-19T21:06:23.177Z,64.55
2023-02-19T21:08:25.834Z,65.50
2023-02-19T21:10:28.360Z,64.76
2023-02-19T21:12:32.060Z,65.67
2023-02-19T21:14:35.102Z,64.82
2023-02-19T21:16:37.646Z,64.77
2023-02-19T21:18:40.088Z,64.73
2023-02-19T21:22:45.497Z,64.78
2023-02-19T21:24:53.265Z,64.60
2023-02-19T21:26:56.253Z,64.67
2023-02-19T21:28:58.643Z,64.29
2023-02-19T21:31:01.809Z,64.13
2023-02-19T21:33:04.644Z,64.35
2023-02-19T21:35:07.688Z,65.29
2023-02-19T21:37:10.100Z,65.10
2023-02-19T21:39:16.159Z,65.40
2023-02-19T21:41:18.569Z,64.96
2023-02-19T21:43:21.481Z,65.24
2023-02-19T21:45:23.927Z,65.46
2023-02-19T21:47:28.114Z,64.97
2023-02-19T21:49:30.490Z,65.36
2023-02-19T21:51:42.982Z,64.60
2023-02-19T21:53:46.605Z,64.73
2023-02-19T21:55:58.370Z,65.33
2023-02-19T21:58:01.251Z,65.82
2023-02-19T22:00:06.360Z,65.63
2023-02-19T22:02:09.983Z,65.77
2023-02-19T22:04:17.824Z,65.11
2023-02-19T22:06:27.444Z,65.66
2023-02-19T22:08:31.540Z,65.10
2023-02-19T22:10:34.396Z,65.33
2023-02-19T22:12:37.035Z,65.44
2023-02-19T22:14:39.371Z,65.60
2023-02-19T22:16:41.937Z,66.48
2023-02-19T22:18:52.951Z,66.44
2023-02-19T22:20:55.738Z,66.39
2023-02-19T22:22:58.200Z,66.05
2023-02-19T22:25:01.111Z,66.14
2023-02-19T22:27:04.180Z,66.51
2023-02-19T22:29:08.737Z,66.45
2023-02-19T22:31:11.751Z,66.16
2023-02-19T22:33:14.396Z,66.35
2023-02-19T22:35:17.190Z,66.30
2023-02-19T22:37:20.045Z,66.12
2023-02-19T22:39:26.162Z,66.21
2023-02-19T22:41:28.868Z,65.88
2023-02-19T22:43:31.317Z,66.26
2023-02-19T22:45:34.041Z,66.86
2023-02-19T22:47:36.473Z,66.73
2023-02-19T22:49:40.147Z,66.19
2023-02-19T22:51:49.991Z,66.11
2023-02-19T22:53:54.989Z,66.75
2023-02-19T22:55:57.449Z,66.69
2023-02-19T22:58:00.267Z,66.70
2023-02-19T23:00:07.181Z,66.80
2023-02-19T23:02:09.732Z,66.44
2023-02-19T23:04:12.318Z,66.59
2023-02-19T23:06:16.255Z,66.54
2023-02-19T23:08:18.796Z,66.35
2023-02-19T23:10:21.573Z,66.71
2023-02-19T23:12:24.538Z,66.25
2023-02-19T23:14:27.393Z,66.02
2023-02-19T23:16:29.956Z,66.95
2023-02-19T23:18:32.315Z,66.78
2023-02-19T23:20:36.232Z,66.52
2023-02-19T23:22:38.587Z,66.40
2023-02-19T23:24:41.042Z,66.01
2023-02-19T23:26:48.398Z,66.33
2023-02-19T23:28:51.166Z,65.83
2023-02-19T23:30:53.467Z,66.10
2023-02-19T23:32:55.879Z,66.12
2023-02-19T23:34:58.494Z,66.02
2023-02-19T23:37:00.851Z,66.61
2023-02-19T23:39:03.810Z,66.31
2023-02-19T23:41:11.378Z,65.58
2023-02-19T23:43:13.688Z,66.49
2023-02-19T23:45:16.974Z,66.15
2023-02-19T23:47:20.594Z,65.40
2023-02-19T23:49:23.236Z,65.53
2023-02-19T23:51:26.156Z,65.38
2023-02-19T23:54:10.551Z,65.74
2023-02-19T23:56:13.230Z,65.19
2023-02-19T23:58:15.861Z,65.62
